createdAt,value
2018-03-21T00:01:58.868Z,5.00
2018-03-21T00:04:25.509Z,6.55
2018-03-21T00:06:53.160Z,13.05
2018-03-21T00:09:20.682Z,6.35
2018-03-21T00:11:47.445Z,7.80
2018-03-21T00:14:14.066Z,6.45
2018-03-21T00:16:40.599Z,7.95
2018-03-21T00:19:07.280Z,6.03
2018-03-21T00:21:35.921Z,5.22
2018-03-21T00:24:02.619Z,4.28
2018-03-21T00:26:29.215Z,6.43
2018-03-21T00:28:55.771Z,9.23
2018-03-21T00:31:22.440Z,5.80
2018-03-21T00:33:59.461Z,7.12
2018-03-21T00:36:39.923Z,9.70
2018-03-21T00:39:14.399Z,6.40
2018-03-21T00:41:43.243Z,9.02
2018-03-21T00:44:10.988Z,5.97
2018-03-21T00:46:45.625Z,7.57
2018-03-21T00:49:12.179Z,5.20
2018-03-21T00:51:47.192Z,6.00
2018-03-21T00:54:13.744Z,5.12
2018-03-21T00:56:40.258Z,5.12
2018-03-21T00:59:06.700Z,4.32
2018-03-21T01:01:33.193Z,9.73
2018-03-21T01:03:59.581Z,4.43
2018-03-21T01:06:29.899Z,6.25
2018-03-21T01:09:05.590Z,10.85
2018-03-21T01:11:32.066Z,8.10
2018-03-21T01:13:58.790Z,10.23
2018-03-21T01:16:25.136Z,10.45
2018-03-21T01:18:51.518Z,6.82
2018-03-21T01:21:17.864Z,4.80
2018-03-21T01:23:45.364Z,9.15
2018-03-21T01:26:11.902Z,7.50
2018-03-21T01:28:42.167Z,7.72
2018-03-21T01:31:10.535Z,7.12
2018-03-21T01:33:36.981Z,6.62
2018-03-21T01:36:17.400Z,10.15
2018-03-21T01:38:44.916Z,8.13
2018-03-21T01:41:11.307Z,6.25
2018-03-21T01:43:49.142Z,10.82
2018-03-21T01:46:25.228Z,10.38
2018-03-21T01:48:52.709Z,6.15
2018-03-21T01:51:19.514Z,5.32
2018-03-21T01:54:02.948Z,10.13
2018-03-21T01:56:29.835Z,15.00
2018-03-21T01:58:56.464Z,7.50
2018-03-21T02:01:23.206Z,8.75
2018-03-21T02:03:59.838Z,8.77
2018-03-21T02:06:28.416Z,6.35
2018-03-21T02:08:59.810Z,5.93
2018-03-21T02:11:33.318Z,8.77
2018-03-21T02:13:59.917Z,7.25
2018-03-21T02:16:26.682Z,5.03
2018-03-21T02:18:53.423Z,5.57
2018-03-21T02:21:27.666Z,5.10
2018-03-21T02:23:54.552Z,12.93
2018-03-21T02:26:22.059Z,7.45
2018-03-21T02:29:02.111Z,7.25
2018-03-21T02:31:28.775Z,6.95
2018-03-21T02:33:55.696Z,5.53
2018-03-21T02:36:22.289Z,5.43
2018-03-21T02:38:50.729Z,8.10
2018-03-21T02:41:17.649Z,9.25
2018-03-21T02:43:45.337Z,7.05
2018-03-21T02:46:12.516Z,8.55
2018-03-21T02:48:39.116Z,3.97
2018-03-21T02:51:05.818Z,6.37
2018-03-21T02:53:32.344Z,9.32
2018-03-21T02:55:58.908Z,6.25
2018-03-21T02:58:26.530Z,6.18
2018-03-21T03:00:53.236Z,5.78
2018-03-21T03:03:21.493Z,6.37
2018-03-21T03:05:48.272Z,9.48
2018-03-21T03:08:14.860Z,8.55
2018-03-21T03:10:41.569Z,5.15
2018-03-21T03:13:08.325Z,7.28
2018-03-21T03:15:38.625Z,11.68
2018-03-21T03:18:05.328Z,14.07
2018-03-21T03:20:31.860Z,5.68
2018-03-21T03:22:58.324Z,7.32
2018-03-21T03:25:25.427Z,8.38
2018-03-21T03:27:52.989Z,6.95
2018-03-21T03:30:19.679Z,7.75
2018-03-21T03:32:46.313Z,8.05
2018-03-21T03:35:12.798Z,9.80
2018-03-21T03:37:39.435Z,8.50
2018-03-21T03:40:06.420Z,5.90
2018-03-21T03:42:33.278Z,7.30
2018-03-21T03:44:59.897Z,11.73
2018-03-21T03:47:27.706Z,8.52
2018-03-21T03:49:54.346Z,9.75
2018-03-21T03:52:21.417Z,11.18
2018-03-21T03:54:48.804Z,8.43
2018-03-21T03:57:15.490Z,7.25
2018-03-21T03:59:43.014Z,7.72
2018-03-21T04:02:09.641Z,9.68
2018-03-21T04:04:36.419Z,11.70
2018-03-21T04:07:03.061Z,11.30
2018-03-21T04:09:29.504Z,10.65
2018-03-21T04:11:55.928Z,13.50
2018-03-21T04:14:22.390Z,14.38
2018-03-21T04:16:49.565Z,10.40
2018-03-21T04:19:17.956Z,12.48
2018-03-21T04:21:44.302Z,9.43
2018-03-21T04:24:10.727Z,8.57
2018-03-21T04:26:37.150Z,12.65
2018-03-21T04:29:04.385Z,12.02
2018-03-21T04:31:33.790Z,13.62
2018-03-21T04:34:00.422Z,12.57
2018-03-21T04:36:26.923Z,13.90
2018-03-21T04:38:53.500Z,11.00
2018-03-21T04:41:19.951Z,17.60
2018-03-21T04:43:47.557Z,15.00
2018-03-21T04:46:13.949Z,15.18
2018-03-21T04:48:42.901Z,12.43
2018-03-21T04:51:09.627Z,10.57
2018-03-21T04:53:36.107Z,16.35
2018-03-21T04:56:02.553Z,16.85
2018-03-21T04:58:29.175Z,13.45
2018-03-21T05:00:57.339Z,10.45
2018-03-21T05:03:24.970Z,19.05
2018-03-21T05:05:52.753Z,10.75
2018-03-21T05:08:19.405Z,15.68
2018-03-21T05:10:45.881Z,21.40
2018-03-21T05:13:12.336Z,16.75
2018-03-21T05:15:38.928Z,18.12
2018-03-21T05:18:11.617Z,14.30
2018-03-21T05:20:38.744Z,19.33
2018-03-21T05:23:08.636Z,21.08
2018-03-21T05:25:36.257Z,18.52
2018-03-21T05:28:02.668Z,21.80
2018-03-21T05:33:13.134Z,24.80
2018-03-21T05:35:40.614Z,18.55
2018-03-21T05:38:07.123Z,24.58
2018-03-21T05:40:33.675Z,23.02
2018-03-21T05:43:00.211Z,26.87
2018-03-21T05:45:26.798Z,31.33
2018-03-21T05:47:53.332Z,27.30
2018-03-21T05:50:19.814Z,37.00
2018-03-21T05:52:46.286Z,36.65
2018-03-21T05:55:12.752Z,34.63
2018-03-21T05:57:45.622Z,29.10
2018-03-21T06:00:14.531Z,35.85
2018-03-21T06:02:44.355Z,36.55
2018-03-21T06:05:12.899Z,37.20
2018-03-21T06:07:42.078Z,41.13
2018-03-21T06:10:09.474Z,35.17
2018-03-21T06:12:38.195Z,37.03
2018-03-21T06:15:05.834Z,34.38
2018-03-21T06:17:52.505Z,40.15
2018-03-21T06:20:27.070Z,36.17
2018-03-21T06:22:53.866Z,34.08
2018-03-21T06:25:20.570Z,34.92
2018-03-21T06:27:47.304Z,37.92
2018-03-21T06:30:14.171Z,39.17
2018-03-21T06:32:40.870Z,41.00
2018-03-21T06:35:07.379Z,36.13
2018-03-21T06:37:33.810Z,34.92
2018-03-21T06:40:01.915Z,32.35
2018-03-21T06:42:28.408Z,45.35
2018-03-21T06:44:54.790Z,33.88
2018-03-21T06:47:21.209Z,40.00
2018-03-21T06:49:47.592Z,33.88
2018-03-21T06:52:13.966Z,35.80
2018-03-21T06:54:40.301Z,35.08
2018-03-21T06:57:06.665Z,33.17
2018-03-21T06:59:33.053Z,37.65
2018-03-21T07:02:00.173Z,38.00
2018-03-21T07:04:26.565Z,23.55
2018-03-21T07:06:54.007Z,26.42
2018-03-21T07:09:21.220Z,30.37
2018-03-21T07:11:47.619Z,24.08
2018-03-21T07:14:26.921Z,28.20
2018-03-21T07:16:53.364Z,31.17
2018-03-21T07:19:19.857Z,34.70
2018-03-21T07:21:46.362Z,34.58
2018-03-21T07:24:12.788Z,21.50
2018-03-21T07:26:39.206Z,24.45
2018-03-21T07:29:06.307Z,22.05
2018-03-21T07:31:32.648Z,25.10
2018-03-21T07:33:59.009Z,22.13
2018-03-21T07:36:27.569Z,27.05
2018-03-21T07:38:53.961Z,30.48
2018-03-21T07:41:20.350Z,26.73
2018-03-21T07:43:46.759Z,29.40
2018-03-21T07:46:13.868Z,23.83
2018-03-21T07:48:40.302Z,32.90
2018-03-21T07:51:07.393Z,26.42
2018-03-21T07:53:33.754Z,69.65
2018-03-21T07:56:00.109Z,55.45
2018-03-21T07:58:26.466Z,71.53
2018-03-21T08:00:52.950Z,54.92
2018-03-21T08:03:19.341Z,58.53
2018-03-21T08:05:46.432Z,60.88
2018-03-21T08:08:12.880Z,62.83
2018-03-21T08:10:39.398Z,65.60
2018-03-21T08:13:05.844Z,60.95
2018-03-21T08:15:36.963Z,46.63
2018-03-21T08:18:03.550Z,51.45
2018-03-21T08:20:30.675Z,40.30
2018-03-21T08:22:57.746Z,47.72
2018-03-21T08:25:24.882Z,54.30
2018-03-21T08:27:51.357Z,56.00
2018-03-21T08:30:22.536Z,51.17
2018-03-21T08:32:48.991Z,37.55
2018-03-21T08:35:15.346Z,39.38
2018-03-21T08:37:42.541Z,33.05
2018-03-21T08:40:08.952Z,31.95
2018-03-21T08:42:36.018Z,29.52
2018-03-21T08:45:09.749Z,35.20
2018-03-21T08:47:36.875Z,33.35
2018-03-21T08:50:03.243Z,38.65
2018-03-21T08:52:29.586Z,35.33
2018-03-21T08:54:56.012Z,32.85
2018-03-21T08:57:22.424Z,36.10
2018-03-21T08:59:53.330Z,35.15
2018-03-21T09:02:19.795Z,39.80
2018-03-21T09:04:46.170Z,38.97
2018-03-21T09:07:12.611Z,39.90
2018-03-21T09:09:39.110Z,35.60
2018-03-21T09:12:05.489Z,43.97
2018-03-21T09:14:31.873Z,47.90
2018-03-21T09:17:01.763Z,44.70
2018-03-21T09:19:28.898Z,50.70
2018-03-21T09:21:55.290Z,62.50
2018-03-21T09:24:21.704Z,56.85
2018-03-21T09:26:48.066Z,50.53
2018-03-21T09:29:14.462Z,62.92
2018-03-21T09:31:45.813Z,67.62
2018-03-21T09:34:12.185Z,57.95
2018-03-21T09:36:38.625Z,60.05
2018-03-21T09:39:05.886Z,81.40
2018-03-21T09:41:32.285Z,66.70
2018-03-21T09:43:58.722Z,66.18
2018-03-21T09:46:25.261Z,66.62
2018-03-21T09:48:55.302Z,65.90
2018-03-21T09:51:22.732Z,67.95
2018-03-21T09:53:49.149Z,60.75
2018-03-21T09:56:15.545Z,53.08
2018-03-21T09:58:41.828Z,51.22
2018-03-21T10:01:09.050Z,46.85
2018-03-21T10:03:35.394Z,57.03
2018-03-21T10:06:03.788Z,45.97
2018-03-21T10:08:30.168Z,49.25
2018-03-21T10:10:56.521Z,48.90
2018-03-21T10:13:22.857Z,40.70
2018-03-21T10:15:49.242Z,35.72
2018-03-21T10:18:15.602Z,37.90
2018-03-21T10:20:42.078Z,43.17
2018-03-21T10:23:15.830Z,44.17
2018-03-21T10:25:42.242Z,48.00
2018-03-21T10:28:08.669Z,44.50
2018-03-21T10:30:35.124Z,49.33
2018-03-21T10:33:01.629Z,39.53
2018-03-21T10:35:28.064Z,32.38
2018-03-21T10:37:57.451Z,35.45
2018-03-21T10:40:24.657Z,34.65
2018-03-21T10:42:51.023Z,35.47
2018-03-21T10:45:17.218Z,38.58
2018-03-21T10:47:44.345Z,41.92
2018-03-21T10:50:10.589Z,40.38
2018-03-21T10:52:39.036Z,34.65
2018-03-21T10:57:34.360Z,48.05
2018-03-21T11:00:01.291Z,44.08
2018-03-21T11:02:43.640Z,40.47
2018-03-21T11:05:12.280Z,49.60
2018-03-21T11:07:38.921Z,47.22
2018-03-21T11:10:05.454Z,43.45
2018-03-21T11:12:32.415Z,43.28
2018-03-21T11:14:58.577Z,51.55
2018-03-21T11:17:25.531Z,44.22
2018-03-21T11:19:52.436Z,36.88
2018-03-21T11:22:18.610Z,35.85
2018-03-21T11:24:46.169Z,38.63
2018-03-21T11:27:13.130Z,49.45
2018-03-21T11:29:39.478Z,57.58
2018-03-21T11:32:06.461Z,51.85
2018-03-21T11:34:32.722Z,46.22
2018-03-21T11:36:59.657Z,53.87
2018-03-21T11:39:25.882Z,59.35
2018-03-21T11:41:52.304Z,58.58
2018-03-21T11:44:21.977Z,50.60
2018-03-21T11:46:49.246Z,63.05
2018-03-21T11:49:15.450Z,66.32
2018-03-21T11:51:41.709Z,73.82
2018-03-21T11:54:08.849Z,66.20
2018-03-21T11:56:35.069Z,61.97
2018-03-21T11:59:03.512Z,69.57
2018-03-21T12:01:32.290Z,58.35
2018-03-21T12:03:58.560Z,57.33
2018-03-21T12:06:25.043Z,58.58
2018-03-21T12:08:51.439Z,50.00
2018-03-21T12:11:17.655Z,46.80
2018-03-21T12:13:44.717Z,49.17
2018-03-21T12:16:18.230Z,52.15
2018-03-21T12:18:45.263Z,48.13
2018-03-21T12:21:11.497Z,55.40
2018-03-21T12:23:38.422Z,61.25
2018-03-21T12:26:04.633Z,61.55
2018-03-21T12:28:30.846Z,73.93
2018-03-21T12:31:01.854Z,62.28
2018-03-21T12:33:29.006Z,53.17
2018-03-21T12:35:56.034Z,55.03
2018-03-21T12:38:22.255Z,60.15
2018-03-21T12:40:48.508Z,55.92
2018-03-21T12:43:14.694Z,57.75
2018-03-21T12:45:40.915Z,45.80
2018-03-21T12:48:12.166Z,45.97
2018-03-21T12:50:39.213Z,47.47
2018-03-21T12:53:05.572Z,44.67
2018-03-21T12:55:31.810Z,48.45
2018-03-21T12:57:58.203Z,52.92
2018-03-21T13:00:24.430Z,48.28
2018-03-21T13:02:51.405Z,54.25
2018-03-21T13:05:35.848Z,52.62
2018-03-21T13:08:02.115Z,42.88
2018-03-21T13:10:28.349Z,44.03
2018-03-21T13:12:54.537Z,47.88
2018-03-21T13:15:24.216Z,48.80
2018-03-21T13:17:51.386Z,53.33
2018-03-21T13:20:18.321Z,51.08
2018-03-21T13:22:45.351Z,54.75
2018-03-21T13:25:11.666Z,45.60
2018-03-21T13:27:37.879Z,55.28
2018-03-21T13:30:10.221Z,60.22
2018-03-21T13:32:36.646Z,45.65
2018-03-21T13:35:03.116Z,56.67
2018-03-21T13:37:30.802Z,43.13
2018-03-21T13:39:57.245Z,36.25
2018-03-21T13:42:23.875Z,49.42
2018-03-21T13:47:27.679Z,43.17
2018-03-21T13:49:55.006Z,34.90
2018-03-21T13:52:22.281Z,55.60
2018-03-21T13:54:48.712Z,45.92
2018-03-21T13:59:47.286Z,44.08
2018-03-21T14:02:13.781Z,44.85
2018-03-21T14:04:40.243Z,41.10
2018-03-21T14:07:07.415Z,38.63
2018-03-21T14:09:33.827Z,37.05
2018-03-21T14:12:01.042Z,38.38
2018-03-21T14:14:27.641Z,39.88
2018-03-21T14:16:56.371Z,33.17
2018-03-21T14:19:24.042Z,41.35
2018-03-21T14:21:51.144Z,36.38
2018-03-21T14:24:17.575Z,30.45
2018-03-21T14:26:44.720Z,35.58
2018-03-21T14:29:11.097Z,38.55
2018-03-21T14:31:37.577Z,35.92
2018-03-21T14:34:09.136Z,37.75
2018-03-21T14:36:35.740Z,40.00
2018-03-21T14:39:04.905Z,40.92
2018-03-21T14:41:34.751Z,33.13
2018-03-21T14:44:01.364Z,31.95
2018-03-21T14:46:35.683Z,31.90
2018-03-21T14:49:02.161Z,30.65
2018-03-21T14:51:30.914Z,32.60
2018-03-21T14:53:59.747Z,31.87
2018-03-21T14:56:26.312Z,37.08
2018-03-21T14:58:53.343Z,36.85
2018-03-21T15:01:19.974Z,33.75
2018-03-21T15:03:46.550Z,37.67
2018-03-21T15:06:13.825Z,35.58
2018-03-21T15:08:43.223Z,29.20
2018-03-21T15:11:09.718Z,31.15
2018-03-21T15:13:36.291Z,36.80
2018-03-21T15:16:03.544Z,36.35
2018-03-21T15:18:30.177Z,35.28
2018-03-21T15:20:56.610Z,35.30
2018-03-21T15:23:23.010Z,39.03
2018-03-21T15:25:49.509Z,37.58
2018-03-21T15:28:15.996Z,36.20
2018-03-21T15:30:46.597Z,34.30
2018-03-21T15:33:13.047Z,32.45
2018-03-21T15:35:40.212Z,38.10
2018-03-21T15:38:06.600Z,30.65
2018-03-21T15:40:33.027Z,34.35
2018-03-21T15:43:00.162Z,38.03
2018-03-21T15:48:00.223Z,36.22
2018-03-21T15:50:26.833Z,33.55
2018-03-21T15:52:53.262Z,41.13
2018-03-21T15:55:19.646Z,36.40
2018-03-21T15:57:46.060Z,36.47
2018-03-21T16:00:18.236Z,42.13
2018-03-21T16:02:44.692Z,38.78
2018-03-21T16:05:11.117Z,36.22
2018-03-21T16:07:37.492Z,42.65
2018-03-21T16:10:03.915Z,42.33
2018-03-21T16:12:30.380Z,41.78
2018-03-21T16:15:02.867Z,42.67
2018-03-21T16:17:29.311Z,37.58
2018-03-21T16:19:55.796Z,39.47
2018-03-21T16:22:22.217Z,43.38
2018-03-21T16:24:48.655Z,44.60
2018-03-21T16:27:15.164Z,40.47
2018-03-21T16:29:41.637Z,40.70
2018-03-21T16:32:13.733Z,42.17
2018-03-21T16:34:40.254Z,40.17
2018-03-21T16:37:06.697Z,40.22
2018-03-21T16:39:33.893Z,37.08
2018-03-21T16:42:00.329Z,36.95
2018-03-21T16:44:27.518Z,33.03
2018-03-21T16:46:54.199Z,34.05
2018-03-21T16:51:58.240Z,33.10
2018-03-21T16:54:25.832Z,43.65
2018-03-21T16:56:52.388Z,33.95
2018-03-21T16:59:18.866Z,38.15
2018-03-21T17:01:50.484Z,44.05
2018-03-21T17:04:17.007Z,41.22
2018-03-21T17:06:43.439Z,37.28
2018-03-21T17:09:09.719Z,35.95
2018-03-21T17:11:37.008Z,37.88
2018-03-21T17:14:03.356Z,39.53
2018-03-21T17:16:35.191Z,43.70
2018-03-21T17:19:01.419Z,36.22
2018-03-21T17:21:27.612Z,32.65
2018-03-21T17:23:53.911Z,33.72
2018-03-21T17:26:20.239Z,35.10
2018-03-21T17:28:46.522Z,31.37
2018-03-21T17:31:12.935Z,35.55
2018-03-21T17:33:42.877Z,31.37
2018-03-21T17:36:10.004Z,33.00
2018-03-21T17:38:36.435Z,27.98
2018-03-21T17:41:02.850Z,39.05
2018-03-21T17:43:29.954Z,35.30
2018-03-21T17:45:56.302Z,40.78
2018-03-21T17:48:22.731Z,33.58
2018-03-21T17:50:55.833Z,35.58
2018-03-21T17:53:23.308Z,38.95
2018-03-21T17:55:50.688Z,33.20
2018-03-21T17:58:17.042Z,32.83
2018-03-21T18:00:43.332Z,35.22
2018-03-21T18:03:09.664Z,33.75
2018-03-21T18:05:38.595Z,41.95
2018-03-21T18:08:04.886Z,35.17
2018-03-21T18:10:31.883Z,28.90
2018-03-21T18:12:58.137Z,32.05
2018-03-21T18:15:24.414Z,29.27
2018-03-21T18:17:50.873Z,27.33
2018-03-21T18:20:17.919Z,25.10
2018-03-21T18:22:50.248Z,30.42
2018-03-21T18:25:16.950Z,30.95
2018-03-21T18:27:43.294Z,25.92
2018-03-21T18:30:09.643Z,30.88
2018-03-21T18:32:36.693Z,27.27
2018-03-21T18:35:02.998Z,22.50
2018-03-21T18:37:29.280Z,22.95
2018-03-21T18:39:55.486Z,22.48
2018-03-21T18:42:21.774Z,24.00
2018-03-21T18:44:48.064Z,24.60
2018-03-21T18:47:14.388Z,23.35
2018-03-21T18:49:40.885Z,18.50
2018-03-21T18:52:08.148Z,27.50
2018-03-21T18:54:34.490Z,24.60
2018-03-21T18:57:00.950Z,24.48
2018-03-21T18:59:27.230Z,19.17
2018-03-21T19:01:53.554Z,23.00
2018-03-21T19:04:19.962Z,21.92
2018-03-21T19:06:53.466Z,21.83
2018-03-21T19:09:20.490Z,25.80
2018-03-21T19:11:46.708Z,21.23
2018-03-21T19:14:13.263Z,21.52
2018-03-21T19:16:39.526Z,18.00
2018-03-21T19:19:05.728Z,22.55
2018-03-21T19:21:32.688Z,20.10
2018-03-21T19:23:59.002Z,21.60
2018-03-21T19:26:25.994Z,20.67
2018-03-21T19:28:52.926Z,17.90
2018-03-21T19:31:19.182Z,18.15
2018-03-21T19:33:46.721Z,21.80
2018-03-21T19:36:17.824Z,23.05
2018-03-21T19:38:45.610Z,15.70
2018-03-21T19:41:13.642Z,16.05
2018-03-21T19:43:40.437Z,15.65
2018-03-21T19:46:07.629Z,22.65
2018-03-21T19:48:34.066Z,17.33
2018-03-21T19:51:00.480Z,21.50
2018-03-21T19:53:26.853Z,22.75
2018-03-21T19:55:54.349Z,17.65
2018-03-21T19:58:24.256Z,21.80
2018-03-21T20:00:51.229Z,22.73
2018-03-21T20:03:17.564Z,21.75
2018-03-21T20:05:44.813Z,19.90
2018-03-21T20:08:11.271Z,21.12
2018-03-21T20:10:38.395Z,22.30
2018-03-21T20:13:04.629Z,21.70
2018-03-21T20:15:34.324Z,20.45
2018-03-21T20:18:01.091Z,15.80
2018-03-21T20:20:27.647Z,16.83
2018-03-21T20:22:54.843Z,17.85
2018-03-21T20:25:21.291Z,23.08
2018-03-21T20:27:47.843Z,22.62
2018-03-21T20:30:15.106Z,20.40
2018-03-21T20:32:44.761Z,19.42
2018-03-21T20:35:11.056Z,20.25
2018-03-21T20:37:37.353Z,23.20
2018-03-21T20:40:03.562Z,24.95
2018-03-21T20:42:29.812Z,17.85
2018-03-21T20:44:56.829Z,19.17
2018-03-21T20:47:23.165Z,20.12
2018-03-21T20:49:49.377Z,17.10
2018-03-21T20:52:15.669Z,15.32
2018-03-21T20:54:42.776Z,20.85
2018-03-21T20:57:09.223Z,21.65
2018-03-21T20:59:35.500Z,21.58
2018-03-21T21:02:01.932Z,21.70
2018-03-21T21:04:28.142Z,21.37
2018-03-21T21:06:54.411Z,20.25
2018-03-21T21:09:20.785Z,18.75
2018-03-21T21:11:47.130Z,20.42
2018-03-21T21:14:14.415Z,27.05
2018-03-21T21:16:40.760Z,28.50
2018-03-21T21:19:07.720Z,20.52
2018-03-21T21:21:33.986Z,19.35
2018-03-21T21:24:00.211Z,24.20
2018-03-21T21:26:26.423Z,18.20
2018-03-21T21:28:52.876Z,22.65
2018-03-21T21:31:19.175Z,23.48
2018-03-21T21:33:45.842Z,26.05
2018-03-21T21:36:12.231Z,24.05
2018-03-21T21:38:39.357Z,21.75
2018-03-21T21:41:05.665Z,23.33
2018-03-21T21:43:31.857Z,26.45
2018-03-21T21:45:58.015Z,22.02
2018-03-21T21:48:24.226Z,25.45
2018-03-21T21:50:51.133Z,20.98
2018-03-21T21:53:17.302Z,23.92
2018-03-21T21:55:44.474Z,22.10
2018-03-21T21:58:10.722Z,23.52
2018-03-21T22:00:37.758Z,23.38
2018-03-21T22:03:03.926Z,19.48
2018-03-21T22:05:30.218Z,21.62
2018-03-21T22:07:56.425Z,17.50
2018-03-21T22:10:22.653Z,26.40
2018-03-21T22:12:49.614Z,21.37
2018-03-21T22:15:15.945Z,20.52
2018-03-21T22:17:42.133Z,24.30
2018-03-21T22:20:08.346Z,25.70
2018-03-21T22:22:34.575Z,31.55
2018-03-21T22:25:01.289Z,27.00
2018-03-21T22:27:27.508Z,26.98
2018-03-21T22:29:53.726Z,27.15
2018-03-21T22:32:20.670Z,30.08
2018-03-21T22:34:46.886Z,26.50
2018-03-21T22:37:13.227Z,24.45
2018-03-21T22:39:39.444Z,21.98
2018-03-21T22:42:05.729Z,29.25
2018-03-21T22:44:32.003Z,22.27
2018-03-21T22:46:58.246Z,21.37
2018-03-21T22:49:24.423Z,28.23
2018-03-21T22:51:50.667Z,24.27
2018-03-21T22:54:16.893Z,24.67
2018-03-21T22:56:43.105Z,25.20
2018-03-21T22:59:09.771Z,27.17
2018-03-21T23:01:36.010Z,24.95
2018-03-21T23:04:02.277Z,27.37
2018-03-21T23:06:28.505Z,26.45
2018-03-21T23:08:54.758Z,23.67
2018-03-21T23:11:21.009Z,25.52
2018-03-21T23:13:47.191Z,25.62
2018-03-21T23:16:14.210Z,23.58
2018-03-21T23:18:40.468Z,24.48
2018-03-21T23:21:06.767Z,29.40
2018-03-21T23:23:32.995Z,30.70
2018-03-21T23:25:59.302Z,27.05
2018-03-21T23:28:25.922Z,23.65
2018-03-21T23:30:52.827Z,26.00
2018-03-21T23:33:19.152Z,22.33
2018-03-21T23:35:46.932Z,26.30
2018-03-21T23:38:13.364Z,26.83
2018-03-21T23:40:40.466Z,27.30
2018-03-21T23:43:07.717Z,24.17
2018-03-21T23:45:34.019Z,31.67
2018-03-21T23:48:00.316Z,27.40
2018-03-21T23:50:26.662Z,31.37
2018-03-21T23:52:54.093Z,28.85
2018-03-21T23:55:21.146Z,29.58
2018-03-21T23:57:48.159Z,27.15
